createdAt,value
2022-08-05T00:02:11.399Z,6.80
2022-08-05T00:04:46.348Z,8.40
2022-08-05T00:08:00.026Z,6.60
2022-08-05T00:10:27.101Z,6.30
2022-08-05T00:13:01.325Z,7.30
2022-08-05T00:15:58.012Z,6.90
2022-08-05T00:18:28.024Z,6.60
2022-08-05T00:21:01.322Z,6.80
2022-08-05T00:23:45.956Z,8.80
2022-08-05T00:26:22.556Z,8.80
2022-08-05T00:28:55.626Z,7.00
2022-08-05T00:31:53.254Z,7.60
2022-08-05T00:34:55.263Z,7.20
2022-08-05T00:37:15.338Z,7.40
2022-08-05T00:39:58.325Z,9.00
2022-08-05T00:42:37.909Z,10.60
2022-08-05T00:45:13.587Z,8.30
2022-08-05T00:47:57.128Z,8.00
2022-08-05T00:50:38.039Z,8.00
2022-08-05T00:54:00.110Z,7.30
2022-08-05T00:56:07.819Z,10.50
2022-08-05T00:58:42.491Z,9.10
2022-08-05T01:01:42.098Z,11.20
2022-08-05T01:04:13.886Z,11.90
2022-08-05T01:06:48.979Z,7.90
2022-08-05T01:09:24.984Z,10.00
2022-08-05T01:12:17.973Z,9.00
2022-08-05T01:14:56.669Z,9.20
2022-08-05T01:17:39.905Z,8.90
2022-08-05T01:20:26.974Z,8.20
2022-08-05T01:23:14.267Z,9.30
2022-08-05T01:26:08.402Z,9.30
2022-08-05T01:28:47.438Z,8.30
2022-08-05T01:31:31.081Z,9.00
2022-08-05T01:34:06.948Z,8.10
2022-08-05T01:36:47.647Z,8.10
2022-08-05T01:39:46.703Z,9.50
2022-08-05T01:42:17.646Z,8.00
2022-08-05T01:44:54.109Z,9.70
2022-08-05T01:47:38.802Z,11.80
2022-08-05T01:50:16.009Z,8.80
2022-08-05T01:52:50.686Z,9.50
2022-08-05T01:55:24.576Z,11.70
2022-08-05T01:58:09.266Z,9.60
2022-08-05T02:00:52.145Z,9.20
2022-08-05T02:03:31.911Z,9.50
2022-08-05T02:06:23.972Z,10.30
2022-08-05T02:09:03.755Z,9.30
2022-08-05T02:11:47.868Z,9.50
2022-08-05T02:14:32.251Z,10.80
2022-08-05T02:17:08.492Z,12.90
2022-08-05T02:20:03.720Z,10.20
2022-08-05T02:22:40.857Z,10.00
2022-08-05T02:25:18.418Z,9.30
2022-08-05T02:27:58.250Z,10.20
2022-08-05T02:30:37.285Z,14.20
2022-08-05T02:33:36.108Z,10.70
2022-08-05T02:36:15.642Z,11.40
2022-08-05T02:38:53.623Z,9.80
2022-08-05T02:41:42.964Z,9.80
2022-08-05T02:44:21.874Z,9.50
2022-08-05T02:47:00.379Z,10.70
2022-08-05T02:49:37.969Z,10.20
2022-08-05T02:52:29.952Z,11.90
2022-08-05T02:55:10.744Z,12.10
2022-08-05T02:58:11.378Z,10.60
2022-08-05T03:00:41.162Z,11.10
2022-08-05T03:03:20.992Z,11.00
2022-08-05T03:06:57.244Z,9.90
2022-08-05T03:08:52.165Z,12.90
2022-08-05T03:11:57.378Z,9.70
2022-08-05T03:14:17.910Z,11.30
2022-08-05T03:16:53.505Z,10.30
2022-08-05T03:19:34.579Z,9.80
2022-08-05T03:22:16.008Z,11.40
2022-08-05T03:24:53.388Z,11.70
2022-08-05T03:27:29.824Z,11.60
2022-08-05T03:30:14.004Z,13.80
2022-08-05T03:32:47.241Z,11.80
2022-08-05T03:35:20.228Z,14.10
2022-08-05T03:37:53.780Z,11.40
2022-08-05T03:40:31.805Z,13.00
2022-08-05T03:43:59.052Z,13.70
2022-08-05T03:46:00.501Z,16.30
2022-08-05T03:48:35.382Z,17.20
2022-08-05T03:52:39.331Z,16.50
2022-08-05T03:56:03.888Z,14.30
2022-08-05T03:57:16.619Z,12.10
2022-08-05T03:59:56.751Z,12.80
2022-08-05T04:02:38.344Z,13.70
2022-08-05T04:05:13.301Z,11.50
2022-08-05T04:07:58.343Z,10.80
2022-08-05T04:10:37.683Z,15.60
2022-08-05T04:13:11.540Z,13.80
2022-08-05T04:16:03.281Z,14.70
2022-08-05T04:18:38.100Z,22.90
2022-08-05T04:21:12.695Z,18.10
2022-08-05T04:24:09.121Z,19.40
2022-08-05T04:26:52.347Z,17.90
2022-08-05T04:29:25.057Z,17.30
2022-08-05T04:32:00.295Z,12.40
2022-08-05T04:34:36.621Z,12.60
2022-08-05T04:37:15.999Z,15.80
2022-08-05T04:39:52.831Z,11.90
2022-08-05T04:42:25.574Z,10.00
2022-08-05T04:44:58.931Z,10.30
2022-08-05T04:47:38.590Z,8.70
2022-08-05T04:50:15.487Z,9.50
2022-08-05T04:53:10.941Z,9.50
2022-08-05T04:56:15.147Z,9.80
2022-08-05T04:58:37.039Z,8.40
2022-08-05T05:01:10.255Z,8.80
2022-08-05T05:03:44.127Z,9.50
2022-08-05T05:06:39.694Z,9.90
2022-08-05T05:09:17.529Z,8.70
2022-08-05T05:11:55.473Z,9.80
2022-08-05T05:14:31.865Z,10.60
2022-08-05T05:17:07.346Z,8.50
2022-08-05T05:19:44.190Z,7.30
2022-08-05T05:22:23.740Z,10.90
2022-08-05T05:25:15.992Z,8.40
2022-08-05T05:27:54.042Z,8.40
2022-08-05T05:30:30.774Z,7.30
2022-08-05T05:33:16.591Z,9.40
2022-08-05T05:35:49.790Z,11.00
2022-08-05T05:38:27.490Z,6.90
2022-08-05T05:41:00.418Z,6.80
2022-08-05T05:43:56.551Z,7.40
2022-08-05T05:46:27.321Z,8.80
2022-08-05T05:49:00.099Z,7.10
2022-08-05T05:51:49.711Z,7.60
2022-08-05T05:54:22.502Z,8.40
2022-08-05T05:57:23.382Z,11.60
2022-08-05T05:59:56.192Z,6.90
2022-08-05T06:02:37.394Z,9.20
2022-08-05T06:05:16.719Z,9.70
2022-08-05T06:07:57.854Z,9.20
2022-08-05T06:10:49.110Z,10.00
2022-08-05T06:13:28.549Z,8.60
2022-08-05T06:16:38.358Z,8.90
2022-08-05T06:19:37.707Z,8.80
2022-08-05T06:26:12.620Z,9.80
2022-08-05T06:28:31.319Z,8.50
2022-08-05T06:31:11.120Z,10.90
2022-08-05T06:34:26.534Z,12.20
2022-08-05T06:40:32.381Z,8.90
2022-08-05T06:43:05.235Z,14.70
2022-08-05T06:46:06.785Z,12.80
2022-08-05T06:48:55.841Z,9.20
2022-08-05T06:51:30.765Z,9.60
2022-08-05T06:54:05.031Z,7.50
2022-08-05T06:56:37.646Z,10.70
2022-08-05T06:59:12.774Z,11.40
2022-08-05T07:01:48.052Z,11.00
2022-08-05T07:04:25.448Z,7.70
2022-08-05T07:06:58.522Z,10.50
2022-08-05T07:09:32.527Z,10.80
2022-08-05T07:12:34.658Z,12.00
2022-08-05T07:16:00.885Z,8.90
2022-08-05T07:18:30.098Z,11.50
2022-08-05T07:21:05.775Z,7.60
2022-08-05T07:23:49.126Z,9.00
2022-08-05T07:26:24.916Z,7.50
2022-08-05T07:28:59.844Z,8.70
2022-08-05T07:31:53.908Z,11.40
2022-08-05T07:34:28.537Z,10.20
2022-08-05T07:37:01.446Z,11.10
2022-08-05T07:40:26.705Z,10.40
2022-08-05T07:42:33.549Z,8.40
2022-08-05T07:45:11.949Z,8.70
2022-08-05T07:47:45.347Z,9.50
2022-08-05T07:50:18.050Z,7.80
2022-08-05T07:52:54.021Z,7.30
2022-08-05T07:56:05.831Z,6.80
2022-08-05T07:58:54.946Z,7.80
2022-08-05T08:01:14.646Z,6.70
2022-08-05T08:03:48.780Z,8.20
2022-08-05T08:06:28.249Z,7.60
2022-08-05T08:09:01.984Z,7.00
2022-08-05T08:11:47.054Z,6.80
2022-08-05T08:14:21.445Z,7.60
2022-08-05T08:16:54.295Z,7.40
2022-08-05T08:20:21.241Z,6.70
2022-08-05T08:22:20.415Z,7.50
2022-08-05T08:24:55.719Z,6.80
2022-08-05T08:27:45.246Z,6.60
2022-08-05T08:30:34.145Z,6.10
2022-08-05T08:33:14.472Z,6.30
2022-08-05T08:35:52.674Z,8.30
2022-08-05T08:38:35.718Z,8.20
2022-08-05T08:41:14.159Z,6.00
2022-08-05T08:45:20.484Z,6.30
2022-08-05T08:46:41.208Z,7.00
2022-08-05T08:50:22.915Z,6.20
2022-08-05T08:52:16.206Z,6.40
2022-08-05T08:54:48.358Z,6.10
2022-08-05T08:57:20.836Z,6.20
2022-08-05T08:59:56.121Z,5.80
2022-08-05T09:02:28.845Z,5.90
2022-08-05T09:05:17.520Z,5.80
2022-08-05T09:07:57.579Z,5.80
2022-08-05T09:10:32.730Z,6.00
2022-08-05T09:13:06.664Z,6.80
2022-08-05T09:15:41.791Z,5.60
2022-08-05T09:18:16.201Z,5.30
2022-08-05T09:20:51.560Z,6.00
2022-08-05T09:23:23.648Z,5.40
2022-08-05T09:26:11.568Z,5.60
2022-08-05T09:28:53.737Z,5.10
2022-08-05T09:32:40.147Z,5.50
2022-08-05T09:34:21.054Z,5.30
2022-08-05T09:36:59.428Z,4.80
2022-08-05T09:39:45.788Z,6.50
2022-08-05T09:42:28.107Z,5.20
2022-08-05T09:46:05.132Z,5.80
2022-08-05T09:48:02.670Z,5.00
2022-08-05T09:50:44.680Z,8.20
2022-08-05T09:53:26.117Z,4.70
2022-08-05T09:56:13.099Z,5.30
2022-08-05T09:58:59.328Z,6.90
2022-08-05T10:01:33.673Z,4.30
2022-08-05T10:04:10.488Z,5.60
2022-08-05T10:06:49.963Z,4.70
2022-08-05T10:09:30.217Z,5.10
2022-08-05T10:12:33.254Z,4.80
2022-08-05T10:15:20.018Z,4.50
2022-08-05T10:18:09.400Z,4.90
2022-08-05T10:20:47.706Z,5.30
2022-08-05T10:23:55.465Z,5.60
2022-08-05T10:26:15.502Z,4.80
2022-08-05T10:28:49.437Z,6.60
2022-08-05T10:32:54.070Z,4.70
2022-08-05T10:34:25.585Z,4.70
2022-08-05T10:37:00.801Z,8.00
2022-08-05T10:39:59.005Z,4.80
2022-08-05T10:42:33.401Z,5.00
2022-08-05T10:45:21.284Z,4.40
2022-08-05T10:48:30.176Z,4.90
2022-08-05T10:51:04.281Z,5.20
2022-08-05T10:53:38.927Z,4.70
2022-08-05T10:56:25.125Z,5.40
2022-08-05T10:59:12.484Z,4.40
2022-08-05T11:05:19.687Z,6.00
2022-08-05T11:08:03.226Z,4.50
2022-08-05T11:10:50.420Z,4.70
2022-08-05T11:13:54.784Z,4.20
2022-08-05T11:16:47.617Z,4.60
2022-08-05T11:20:10.311Z,4.90
2022-08-05T11:22:42.290Z,4.70
2022-08-05T11:26:05.068Z,4.80
2022-08-05T11:28:44.378Z,5.10
2022-08-05T11:31:57.235Z,4.50
2022-08-05T11:34:47.599Z,5.50
2022-08-05T11:38:26.164Z,4.30
2022-08-05T11:41:15.429Z,4.50
2022-08-05T11:44:06.534Z,4.70
2022-08-05T11:47:10.350Z,4.50
2022-08-05T11:49:38.322Z,4.10
2022-08-05T11:52:14.707Z,4.80
2022-08-05T11:54:56.260Z,4.80
2022-08-05T11:58:08.610Z,4.60
2022-08-05T12:00:32.672Z,4.30
2022-08-05T12:03:29.194Z,4.60
2022-08-05T12:06:09.760Z,4.50
2022-08-05T12:08:49.895Z,4.60
2022-08-05T12:11:28.398Z,4.60
2022-08-05T12:14:14.887Z,5.70
2022-08-05T12:16:50.368Z,4.60
2022-08-05T12:20:26.325Z,4.50
2022-08-05T12:22:22.284Z,4.60
2022-08-05T12:24:58.423Z,4.60
2022-08-05T12:27:33.349Z,4.50
2022-08-05T12:30:10.687Z,4.40
2022-08-05T12:32:51.161Z,6.70
2022-08-05T12:35:37.234Z,4.40
2022-08-05T12:38:13.383Z,5.60
2022-08-05T12:40:47.750Z,4.80
2022-08-05T12:43:22.965Z,5.30
2022-08-05T12:45:58.554Z,4.80
2022-08-05T12:48:41.911Z,4.90
2022-08-05T12:52:09.989Z,4.70
2022-08-05T12:54:16.945Z,4.40
2022-08-05T12:56:57.274Z,4.80
2022-08-05T13:00:09.048Z,4.60
2022-08-05T13:02:30.671Z,4.70
2022-08-05T13:05:07.206Z,4.70
2022-08-05T13:08:00.645Z,5.50
2022-08-05T13:10:35.126Z,5.00
2022-08-05T13:14:06.266Z,4.70
2022-08-05T13:16:19.899Z,5.10
2022-08-05T13:18:58.787Z,4.70
2022-08-05T13:21:38.132Z,4.60
2022-08-05T13:24:44.989Z,5.40
2022-08-05T13:27:23.023Z,5.00
2022-08-05T13:30:34.658Z,4.80
2022-08-05T13:33:03.099Z,4.50
2022-08-05T13:35:47.210Z,4.70
2022-08-05T13:38:31.076Z,4.70
2022-08-05T13:41:08.763Z,4.70
2022-08-05T13:43:45.723Z,4.30
2022-08-05T13:46:50.866Z,5.10
2022-08-05T13:49:19.898Z,4.60
2022-08-05T13:51:54.067Z,4.60
2022-08-05T13:54:26.535Z,4.70
2022-08-05T13:56:58.766Z,4.50
2022-08-05T13:59:31.909Z,4.60
2022-08-05T14:02:05.289Z,4.70
2022-08-05T14:05:00.636Z,6.20
2022-08-05T14:07:59.774Z,4.90
2022-08-05T14:10:28.640Z,4.70
2022-08-05T14:13:06.151Z,4.80
2022-08-05T14:16:07.266Z,4.70
2022-08-05T14:18:34.508Z,4.80
2022-08-05T14:22:07.883Z,4.70
2022-08-05T14:24:09.850Z,4.90
2022-08-05T14:26:56.607Z,5.00
2022-08-05T14:29:34.475Z,4.80
2022-08-05T14:32:12.291Z,5.60
2022-08-05T14:34:47.223Z,4.70
2022-08-05T14:37:19.507Z,4.60
2022-08-05T14:39:59.021Z,4.50
2022-08-05T14:42:32.275Z,7.70
2022-08-05T14:45:08.977Z,5.40
2022-08-05T14:48:02.912Z,4.60
2022-08-05T14:50:39.760Z,4.70
2022-08-05T14:53:14.358Z,4.50
2022-08-05T14:55:52.096Z,4.20
2022-08-05T14:58:26.563Z,4.10
2022-08-05T15:01:03.139Z,4.60
2022-08-05T15:03:39.045Z,4.00
2022-08-05T15:06:15.686Z,4.40
2022-08-05T15:08:59.046Z,4.50
2022-08-05T15:11:53.254Z,4.00
2022-08-05T15:14:35.601Z,4.00
2022-08-05T15:17:44.405Z,4.10
2022-08-05T15:20:18.453Z,4.20
2022-08-05T15:22:54.992Z,4.40
2022-08-05T15:25:41.010Z,4.00
2022-08-05T15:28:23.047Z,3.90
2022-08-05T15:31:03.613Z,3.90
2022-08-05T15:34:19.115Z,4.30
2022-08-05T15:36:30.879Z,4.30
2022-08-05T15:40:59.157Z,4.00
2022-08-05T15:41:59.102Z,7.30
2022-08-05T15:44:32.403Z,4.30
2022-08-05T15:47:05.614Z,4.60
2022-08-05T15:49:47.904Z,4.00
2022-08-05T15:52:52.332Z,4.10
2022-08-05T15:55:24.912Z,5.50
2022-08-05T15:58:16.452Z,4.60
2022-08-05T16:01:12.018Z,3.60
2022-08-05T16:03:44.476Z,4.30
2022-08-05T16:06:23.463Z,3.60
2022-08-05T16:08:57.304Z,3.50
2022-08-05T16:11:43.021Z,4.20
2022-08-05T16:14:17.317Z,4.30
2022-08-05T16:16:50.459Z,4.30
2022-08-05T16:20:02.746Z,4.50
2022-08-05T16:22:17.989Z,4.40
2022-08-05T16:24:59.971Z,4.40
2022-08-05T16:27:59.812Z,4.60
2022-08-05T16:30:29.146Z,4.10
2022-08-05T16:33:02.796Z,4.70
2022-08-05T16:35:42.028Z,5.00
2022-08-05T16:38:25.173Z,4.30
2022-08-05T16:41:02.627Z,4.60
2022-08-05T16:43:56.333Z,5.30
2022-08-05T16:46:29.293Z,4.80
2022-08-05T16:49:03.019Z,5.40
2022-08-05T16:51:50.369Z,4.40
2022-08-05T16:54:30.315Z,4.40
2022-08-05T16:57:14.901Z,4.50
2022-08-05T17:00:01.596Z,4.80
2022-08-05T17:02:38.437Z,4.60
2022-08-05T17:05:11.935Z,4.30
2022-08-05T17:07:53.001Z,6.10
2022-08-05T17:10:30.554Z,7.60
2022-08-05T17:13:03.860Z,8.50
2022-08-05T17:15:48.949Z,4.50
2022-08-05T17:18:26.199Z,4.50
2022-08-05T17:20:59.909Z,5.10
2022-08-05T17:24:04.877Z,6.00
2022-08-05T17:26:25.690Z,5.40
2022-08-05T17:28:58.187Z,6.00
2022-08-05T17:31:41.581Z,141.70
2022-08-05T17:34:32.029Z,45.40
2022-08-05T17:37:27.336Z,55.20
2022-08-05T17:39:59.806Z,40.00
2022-08-05T17:42:36.415Z,45.60
2022-08-05T17:45:20.910Z,40.00
2022-08-05T17:47:56.030Z,36.70
2022-08-05T17:50:30.973Z,34.40
2022-08-05T17:53:08.691Z,27.10
2022-08-05T17:55:41.934Z,26.00
2022-08-05T17:58:16.451Z,29.80
2022-08-05T18:00:55.070Z,28.80
2022-08-05T18:03:55.814Z,28.10
2022-08-05T18:06:29.505Z,30.10
2022-08-05T18:09:04.776Z,23.10
2022-08-05T18:11:42.242Z,20.50
2022-08-05T18:14:20.620Z,23.10
2022-08-05T18:16:53.604Z,22.10
2022-08-05T18:19:25.980Z,23.70
2022-08-05T18:22:08.864Z,15.70
2022-08-05T18:24:43.891Z,22.00
2022-08-05T18:27:18.872Z,13.10
2022-08-05T18:29:54.786Z,16.60
2022-08-05T18:32:28.425Z,25.10
2022-08-05T18:35:03.122Z,13.50
2022-08-05T18:37:40.352Z,14.40
2022-08-05T18:41:52.671Z,15.40
2022-08-05T18:43:09.039Z,15.50
2022-08-05T18:45:49.738Z,16.80
2022-08-05T18:48:31.585Z,12.20
2022-08-05T18:52:02.897Z,13.90
2022-08-05T18:54:15.801Z,14.00
2022-08-05T18:56:51.168Z,9.70
2022-08-05T18:59:44.143Z,11.00
2022-08-05T19:02:27.246Z,13.80
2022-08-05T19:06:05.575Z,12.80
2022-08-05T19:07:56.336Z,15.90
2022-08-05T19:10:32.310Z,14.50
2022-08-05T19:13:12.279Z,13.00
2022-08-05T19:15:58.740Z,15.90
2022-08-05T19:18:35.623Z,13.70
2022-08-05T19:21:13.100Z,13.60
2022-08-05T19:24:07.209Z,15.70
2022-08-05T19:26:55.009Z,15.10
2022-08-05T19:29:36.302Z,18.10
2022-08-05T19:32:11.718Z,14.00
2022-08-05T19:34:55.242Z,16.40
2022-08-05T19:37:35.060Z,16.10
2022-08-05T19:40:24.292Z,16.40
2022-08-05T19:43:05.409Z,12.80
2022-08-05T19:45:39.313Z,17.00
2022-08-05T19:48:27.560Z,14.30
2022-08-05T19:51:01.426Z,15.10
2022-08-05T19:54:04.707Z,17.00
2022-08-05T19:56:32.503Z,14.10
2022-08-05T19:59:53.746Z,14.70
2022-08-05T20:02:03.841Z,14.10
2022-08-05T20:04:36.938Z,14.40
2022-08-05T20:07:13.430Z,16.50
2022-08-05T20:09:54.503Z,17.10
2022-08-05T20:12:29.741Z,14.90
2022-08-05T20:15:05.802Z,16.30
2022-08-05T20:17:41.753Z,16.00
2022-08-05T20:20:16.266Z,15.80
2022-08-05T20:22:48.719Z,14.60
2022-08-05T20:25:25.992Z,14.80
2022-08-05T20:28:13.754Z,16.10
2022-08-05T20:30:49.484Z,15.20
2022-08-05T20:33:21.940Z,15.70
2022-08-05T20:35:57.557Z,15.60
2022-08-05T20:38:35.498Z,14.50
2022-08-05T20:41:08.999Z,14.70
2022-08-05T20:43:58.950Z,14.80
2022-08-05T20:46:35.851Z,13.60
2022-08-05T20:49:09.765Z,14.20
2022-08-05T20:51:44.510Z,14.20
2022-08-05T20:54:43.201Z,14.20
2022-08-05T20:57:42.661Z,15.00
2022-08-05T21:00:40.376Z,16.60
2022-08-05T21:03:11.432Z,15.50
2022-08-05T21:05:53.784Z,14.30
2022-08-05T21:08:41.785Z,14.60
2022-08-05T21:12:10.797Z,14.80
2022-08-05T21:14:08.443Z,15.30
2022-08-05T21:16:47.588Z,15.20
2022-08-05T21:19:20.252Z,16.10
2022-08-05T21:21:56.820Z,15.20
2022-08-05T21:24:29.698Z,15.60
2022-08-05T21:27:03.531Z,16.00
2022-08-05T21:29:40.679Z,16.30
2022-08-05T21:32:17.173Z,16.40
2022-08-05T21:34:56.007Z,14.80
2022-08-05T21:37:42.566Z,18.40
2022-08-05T21:40:20.560Z,14.40
2022-08-05T21:42:53.818Z,16.40
2022-08-05T21:45:51.469Z,15.20
2022-08-05T21:48:18.881Z,16.90
2022-08-05T21:50:54.379Z,17.20
2022-08-05T21:53:27.875Z,14.50
2022-08-05T21:56:09.925Z,16.60
2022-08-05T21:58:57.568Z,14.50
2022-08-05T22:01:35.493Z,15.00
2022-08-05T22:04:13.514Z,14.70
2022-08-05T22:06:50.255Z,16.20
2022-08-05T22:09:23.686Z,14.60
2022-08-05T22:12:18.105Z,14.80
2022-08-05T22:14:59.499Z,15.80
2022-08-05T22:17:32.489Z,16.80
2022-08-05T22:20:14.933Z,15.20
2022-08-05T22:23:15.887Z,14.20
2022-08-05T22:26:10.453Z,14.00
2022-08-05T22:28:44.379Z,16.40
2022-08-05T22:31:18.461Z,16.60
2022-08-05T22:33:58.342Z,14.30
2022-08-05T22:36:35.000Z,15.20
2022-08-05T22:39:12.822Z,14.90
2022-08-05T22:42:10.230Z,17.20
2022-08-05T22:44:38.442Z,14.20
2022-08-05T22:47:11.181Z,15.30
2022-08-05T22:50:19.663Z,14.80
2022-08-05T22:52:41.190Z,17.00
2022-08-05T22:55:19.512Z,15.80
2022-08-05T22:57:53.461Z,14.90
2022-08-05T23:00:26.653Z,16.00
2022-08-05T23:03:01.216Z,16.10
2022-08-05T23:05:36.769Z,15.80
2022-08-05T23:08:13.321Z,15.70
2022-08-05T23:10:46.732Z,16.60
2022-08-05T23:13:19.675Z,16.50
2022-08-05T23:15:53.672Z,15.40
2022-08-05T23:18:31.289Z,15.00
2022-08-05T23:21:05.825Z,15.90
2022-08-05T23:23:42.477Z,18.90
2022-08-05T23:26:15.610Z,14.90
2022-08-05T23:28:53.797Z,15.20
2022-08-05T23:31:26.769Z,15.60
2022-08-05T23:34:05.217Z,17.20
2022-08-05T23:36:41.513Z,16.60
2022-08-05T23:39:31.988Z,16.50
2022-08-05T23:42:14.305Z,15.90
2022-08-05T23:44:54.450Z,16.20
2022-08-05T23:47:28.436Z,15.50
2022-08-05T23:50:09.760Z,15.80
2022-08-05T23:52:49.425Z,16.90
2022-08-05T23:55:24.622Z,15.50
2022-08-05T23:58:03.950Z,15.30
